sensor_id;sensor_type;location;lat;lon;timestamp;pressure;altitude;pressure_sealevel;temperature;humidity
8051;BME280;4068;42.158;24.732;2023-06-26T00:01:27;99141.81;;;23.33;97.77
8051;BME280;4068;42.158;24.732;2023-06-26T00:04:00;99115.44;;;23.21;97.66
8051;BME280;4068;42.158;24.732;2023-06-26T00:06:26;99126.88;;;23.30;97.30
8051;BME280;4068;42.158;24.732;2023-06-26T00:08:53;99129.13;;;23.33;97.62
8051;BME280;4068;42.158;24.732;2023-06-26T00:11:20;99137.81;;;23.42;97.30
8051;BME280;4068;42.158;24.732;2023-06-26T00:13:45;99129.28;;;23.38;97.14
8051;BME280;4068;42.158;24.732;2023-06-26T00:16:11;99137.19;;;23.40;97.45
8051;BME280;4068;42.158;24.732;2023-06-26T00:18:36;99143.88;;;23.37;97.88
8051;BME280;4068;42.158;24.732;2023-06-26T00:21:02;99140.97;;;23.39;97.86
8051;BME280;4068;42.158;24.732;2023-06-26T00:23:27;99141.59;;;23.34;98.45
8051;BME280;4068;42.158;24.732;2023-06-26T00:25:53;99144.50;;;23.33;98.44
8051;BME280;4068;42.158;24.732;2023-06-26T00:28:18;99151.22;;;23.30;98.69
8051;BME280;4068;42.158;24.732;2023-06-26T00:30:44;99153.75;;;23.18;99.63
8051;BME280;4068;42.158;24.732;2023-06-26T00:33:09;99155.44;;;23.13;100.00
8051;BME280;4068;42.158;24.732;2023-06-26T00:35:35;99152.53;;;23.07;100.00
8051;BME280;4068;42.158;24.732;2023-06-26T00:38:01;99156.69;;;23.03;100.00
8051;BME280;4068;42.158;24.732;2023-06-26T00:40:26;99153.59;;;23.00;100.00
8051;BME280;4068;42.158;24.732;2023-06-26T00:42:53;99129.34;;;22.80;100.00
8051;BME280;4068;42.158;24.732;2023-06-26T00:45:18;99124.38;;;22.70;100.00
8051;BME280;4068;42.158;24.732;2023-06-26T00:47:44;99150.56;;;22.76;100.00
8051;BME280;4068;42.158;24.732;2023-06-26T00:50:10;99152.84;;;22.72;100.00
8051;BME280;4068;42.158;24.732;2023-06-26T00:52:36;99150.38;;;22.64;100.00
8051;BME280;4068;42.158;24.732;2023-06-26T00:55:02;99140.22;;;22.53;100.00
8051;BME280;4068;42.158;24.732;2023-06-26T00:57:30;99120.72;;;22.31;100.00
8051;BME280;4068;42.158;24.732;2023-06-26T00:59:55;99129.84;;;22.30;100.00
8051;BME280;4068;42.158;24.732;2023-06-26T01:02:21;99143.34;;;22.30;100.00
8051;BME280;4068;42.158;24.732;2023-06-26T01:04:49;99136.06;;;22.30;100.00
8051;BME280;4068;42.158;24.732;2023-06-26T01:07:16;99142.09;;;22.26;100.00
8051;BME280;4068;42.158;24.732;2023-06-26T01:09:44;99139.00;;;22.22;100.00
8051;BME280;4068;42.158;24.732;2023-06-26T01:12:10;99140.84;;;22.21;100.00
8051;BME280;4068;42.158;24.732;2023-06-26T01:14:35;99135.06;;;22.18;100.00
8051;BME280;4068;42.158;24.732;2023-06-26T01:17:02;99100.78;;;21.98;100.00
8051;BME280;4068;42.158;24.732;2023-06-26T01:19:30;99109.72;;;22.05;100.00
8051;BME280;4068;42.158;24.732;2023-06-26T01:24:49;99125.91;;;22.05;100.00
8051;BME280;4068;42.158;24.732;2023-06-26T01:27:20;99127.97;;;22.10;100.00
8051;BME280;4068;42.158;24.732;2023-06-26T01:29:49;99126.34;;;22.09;100.00
8051;BME280;4068;42.158;24.732;2023-06-26T01:32:15;99110.56;;;21.93;100.00
8051;BME280;4068;42.158;24.732;2023-06-26T01:34:41;99117.59;;;22.07;100.00
8051;BME280;4068;42.158;24.732;2023-06-26T01:37:07;99118.03;;;22.11;100.00
8051;BME280;4068;42.158;24.732;2023-06-26T01:39:32;99116.16;;;22.11;100.00
8051;BME280;4068;42.158;24.732;2023-06-26T01:41:58;99120.94;;;22.09;100.00
8051;BME280;4068;42.158;24.732;2023-06-26T01:44:29;99111.59;;;22.05;100.00
8051;BME280;4068;42.158;24.732;2023-06-26T01:46:58;99107.84;;;22.06;100.00
8051;BME280;4068;42.158;24.732;2023-06-26T01:52:14;99115.13;;;22.12;100.00
8051;BME280;4068;42.158;24.732;2023-06-26T01:55:04;99114.09;;;22.06;100.00
8051;BME280;4068;42.158;24.732;2023-06-26T01:57:31;99095.19;;;22.00;100.00
8051;BME280;4068;42.158;24.732;2023-06-26T01:59:58;99111.19;;;22.15;100.00
8051;BME280;4068;42.158;24.732;2023-06-26T02:02:24;99113.66;;;22.16;100.00
8051;BME280;4068;42.158;24.732;2023-06-26T02:04:51;99101.84;;;22.11;100.00
8051;BME280;4068;42.158;24.732;2023-06-26T02:07:16;99100.97;;;22.10;100.00
8051;BME280;4068;42.158;24.732;2023-06-26T02:09:42;99117.19;;;22.23;100.00
8051;BME280;4068;42.158;24.732;2023-06-26T02:12:08;99099.31;;;22.16;100.00
8051;BME280;4068;42.158;24.732;2023-06-26T02:14:34;99119.28;;;22.35;100.00
8051;BME280;4068;42.158;24.732;2023-06-26T02:16:59;99112.22;;;22.40;100.00
8051;BME280;4068;42.158;24.732;2023-06-26T02:19:25;99122.16;;;22.47;100.00
8051;BME280;4068;42.158;24.732;2023-06-26T02:21:53;99113.03;;;22.48;100.00
8051;BME280;4068;42.158;24.732;2023-06-26T02:24:19;99103.47;;;22.45;100.00
8051;BME280;4068;42.158;24.732;2023-06-26T02:26:44;99093.09;;;22.42;100.00
8051;BME280;4068;42.158;24.732;2023-06-26T02:29:11;99111.94;;;22.55;100.00
8051;BME280;4068;42.158;24.732;2023-06-26T02:31:36;99117.19;;;22.50;100.00
8051;BME280;4068;42.158;24.732;2023-06-26T02:34:03;99107.63;;;22.48;100.00
8051;BME280;4068;42.158;24.732;2023-06-26T02:36:29;99112.81;;;22.49;100.00
8051;BME280;4068;42.158;24.732;2023-06-26T02:38:54;99103.66;;;22.44;100.00
8051;BME280;4068;42.158;24.732;2023-06-26T02:41:20;99109.72;;;22.39;100.00
8051;BME280;4068;42.158;24.732;2023-06-26T02:43:45;99108.66;;;22.27;100.00
8051;BME280;4068;42.158;24.732;2023-06-26T02:46:11;99094.34;;;22.19;100.00
8051;BME280;4068;42.158;24.732;2023-06-26T02:48:36;99108.66;;;22.27;100.00
8051;BME280;4068;42.158;24.732;2023-06-26T02:51:01;99108.03;;;22.24;100.00
8051;BME280;4068;42.158;24.732;2023-06-26T02:53:27;99118.00;;;22.24;100.00
8051;BME280;4068;42.158;24.732;2023-06-26T02:55:52;99088.13;;;22.05;100.00
8051;BME280;4068;42.158;24.732;2023-06-26T02:58:18;99110.53;;;22.19;100.00
8051;BME280;4068;42.158;24.732;2023-06-26T03:00:44;99112.81;;;22.22;100.00
8051;BME280;4068;42.158;24.732;2023-06-26T03:03:10;99094.72;;;22.23;100.00
8051;BME280;4068;42.158;24.732;2023-06-26T03:05:35;99119.28;;;22.35;100.00
8051;BME280;4068;42.158;24.732;2023-06-26T03:08:02;99075.44;;;22.06;100.00
8051;BME280;4068;42.158;24.732;2023-06-26T03:10:28;99132.97;;;22.40;100.00
8051;BME280;4068;42.158;24.732;2023-06-26T03:12:53;99134.19;;;22.57;100.00
8051;BME280;4068;42.158;24.732;2023-06-26T03:15:18;99127.28;;;22.68;100.00
8051;BME280;4068;42.158;24.732;2023-06-26T03:17:44;99106.91;;;22.66;100.00
8051;BME280;4068;42.158;24.732;2023-06-26T03:20:10;99122.91;;;22.74;100.00
8051;BME280;4068;42.158;24.732;2023-06-26T03:22:36;99128.28;;;22.81;100.00
8051;BME280;4068;42.158;24.732;2023-06-26T03:25:02;99124.50;;;22.88;100.00
8051;BME280;4068;42.158;24.732;2023-06-26T03:27:28;99130.03;;;23.07;100.00
8051;BME280;4068;42.158;24.732;2023-06-26T03:29:53;99125.13;;;23.36;100.00
8051;BME280;4068;42.158;24.732;2023-06-26T03:32:19;99126.75;;;23.50;100.00
8051;BME280;4068;42.158;24.732;2023-06-26T03:34:44;99120.47;;;23.50;99.92
8051;BME280;4068;42.158;24.732;2023-06-26T03:37:09;99135.00;;;23.55;100.00
8051;BME280;4068;42.158;24.732;2023-06-26T03:39:35;99104.50;;;23.41;99.73
8051;BME280;4068;42.158;24.732;2023-06-26T03:42:00;99133.97;;;23.56;99.73
8051;BME280;4068;42.158;24.732;2023-06-26T03:44:29;99133.72;;;23.65;99.70
8051;BME280;4068;42.158;24.732;2023-06-26T03:46:54;99124.16;;;23.62;99.15
8051;BME280;4068;42.158;24.732;2023-06-26T03:49:20;99130.69;;;23.79;98.62
8051;BME280;4068;42.158;24.732;2023-06-26T03:51:45;99118.81;;;23.81;97.94
8051;BME280;4068;42.158;24.732;2023-06-26T03:54:11;99123.41;;;24.05;97.42
8051;BME280;4068;42.158;24.732;2023-06-26T03:56:36;99129.00;;;24.36;95.41
8051;BME280;4068;42.158;24.732;2023-06-26T03:59:02;99132.75;;;24.53;93.46
8051;BME280;4068;42.158;24.732;2023-06-26T04:01:28;99113.06;;;24.64;92.66
8051;BME280;4068;42.158;24.732;2023-06-26T04:03:56;99117.47;;;24.59;92.55
8051;BME280;4068;42.158;24.732;2023-06-26T04:06:21;99098.25;;;24.67;93.09
8051;BME280;4068;42.158;24.732;2023-06-26T04:08:47;99120.22;;;25.26;90.66
8051;BME280;4068;42.158;24.732;2023-06-26T04:11:13;99132.88;;;25.63;88.46
8051;BME280;4068;42.158;24.732;2023-06-26T04:13:38;99133.31;;;26.02;86.01
8051;BME280;4068;42.158;24.732;2023-06-26T04:16:04;99108.53;;;26.34;82.50
8051;BME280;4068;42.158;24.732;2023-06-26T04:18:30;99106.94;;;26.62;82.35
8051;BME280;4068;42.158;24.732;2023-06-26T04:21:09;99126.13;;;27.08;79.72
8051;BME280;4068;42.158;24.732;2023-06-26T04:23:37;99126.91;;;27.20;78.09
8051;BME280;4068;42.158;24.732;2023-06-26T04:26:06;99124.94;;;27.03;78.13
8051;BME280;4068;42.158;24.732;2023-06-26T04:28:35;99097.31;;;26.95;78.78
8051;BME280;4068;42.158;24.732;2023-06-26T04:31:01;99121.91;;;27.29;76.58
8051;BME280;4068;42.158;24.732;2023-06-26T04:33:28;99114.88;;;27.45;77.30
8051;BME280;4068;42.158;24.732;2023-06-26T04:35:54;99127.00;;;27.37;76.00
8051;BME280;4068;42.158;24.732;2023-06-26T04:38:20;99101.16;;;27.11;75.73
8051;BME280;4068;42.158;24.732;2023-06-26T04:40:47;99113.38;;;26.96;76.78
8051;BME280;4068;42.158;24.732;2023-06-26T04:43:12;99134.69;;;26.99;76.97
8051;BME280;4068;42.158;24.732;2023-06-26T04:45:38;99138.44;;;26.69;78.07
8051;BME280;4068;42.158;24.732;2023-06-26T04:48:04;99117.97;;;26.43;79.61
8051;BME280;4068;42.158;24.732;2023-06-26T04:50:30;99137.34;;;26.47;80.29
8051;BME280;4068;42.158;24.732;2023-06-26T04:52:56;99139.94;;;26.53;80.35
8051;BME280;4068;42.158;24.732;2023-06-26T04:55:23;99141.81;;;26.65;80.05
8051;BME280;4068;42.158;24.732;2023-06-26T04:57:49;99149.59;;;26.85;78.84
8051;BME280;4068;42.158;24.732;2023-06-26T05:00:15;99149.66;;;27.14;76.80
8051;BME280;4068;42.158;24.732;2023-06-26T05:02:40;99147.50;;;27.16;74.95
8051;BME280;4068;42.158;24.732;2023-06-26T05:05:06;99152.56;;;27.24;73.82
8051;BME280;4068;42.158;24.732;2023-06-26T05:07:32;99165.41;;;27.41;73.08
8051;BME280;4068;42.158;24.732;2023-06-26T05:09:57;99182.00;;;27.39;72.46
8051;BME280;4068;42.158;24.732;2023-06-26T05:12:23;99138.72;;;27.26;72.48
8051;BME280;4068;42.158;24.732;2023-06-26T05:14:48;99177.03;;;27.48;72.48
8051;BME280;4068;42.158;24.732;2023-06-26T05:17:14;99168.16;;;27.69;71.34
8051;BME280;4068;42.158;24.732;2023-06-26T05:19:40;99179.31;;;27.85;69.68
8051;BME280;4068;42.158;24.732;2023-06-26T05:22:06;99178.03;;;28.04;69.56
8051;BME280;4068;42.158;24.732;2023-06-26T05:24:36;99163.63;;;27.92;69.41
8051;BME280;4068;42.158;24.732;2023-06-26T05:27:02;99180.38;;;27.84;69.97
8051;BME280;4068;42.158;24.732;2023-06-26T05:29:32;99185.63;;;28.02;69.44
8051;BME280;4068;42.158;24.732;2023-06-26T05:31:58;99182.56;;;28.16;68.04
8051;BME280;4068;42.158;24.732;2023-06-26T05:34:25;99173.56;;;28.15;68.39
8051;BME280;4068;42.158;24.732;2023-06-26T05:36:57;99180.19;;;28.02;67.97
8051;BME280;4068;42.158;24.732;2023-06-26T05:39:23;99171.84;;;27.80;68.78
8051;BME280;4068;42.158;24.732;2023-06-26T05:41:50;99159.16;;;27.86;68.65
8051;BME280;4068;42.158;24.732;2023-06-26T05:44:16;99179.84;;;28.16;66.96
8051;BME280;4068;42.158;24.732;2023-06-26T05:46:41;99188.91;;;28.21;66.79
8051;BME280;4068;42.158;24.732;2023-06-26T05:49:06;99190.72;;;27.99;66.51
8051;BME280;4068;42.158;24.732;2023-06-26T05:51:32;99182.25;;;28.29;66.00
8051;BME280;4068;42.158;24.732;2023-06-26T05:53:58;99183.56;;;28.44;64.88
8051;BME280;4068;42.158;24.732;2023-06-26T05:56:23;99176.16;;;28.61;65.00
8051;BME280;4068;42.158;24.732;2023-06-26T05:58:50;99188.63;;;28.74;63.58
8051;BME280;4068;42.158;24.732;2023-06-26T06:01:16;99184.03;;;28.97;63.24
8051;BME280;4068;42.158;24.732;2023-06-26T06:03:42;99187.38;;;29.04;63.45
8051;BME280;4068;42.158;24.732;2023-06-26T06:06:08;99181.81;;;28.93;63.30
8051;BME280;4068;42.158;24.732;2023-06-26T06:08:33;99175.03;;;28.96;62.55
8051;BME280;4068;42.158;24.732;2023-06-26T06:10:59;99185.28;;;29.11;62.19
8051;BME280;4068;42.158;24.732;2023-06-26T06:13:25;99174.31;;;28.84;62.29
8051;BME280;4068;42.158;24.732;2023-06-26T06:15:51;99190.56;;;28.73;63.48
8051;BME280;4068;42.158;24.732;2023-06-26T06:18:16;99166.59;;;28.41;64.16
8051;BME280;4068;42.158;24.732;2023-06-26T06:20:41;99191.88;;;28.37;64.74
8051;BME280;4068;42.158;24.732;2023-06-26T06:23:07;99187.75;;;28.17;65.50
8051;BME280;4068;42.158;24.732;2023-06-26T06:25:32;99181.34;;;28.06;66.48
8051;BME280;4068;42.158;24.732;2023-06-26T06:27:58;99180.94;;;27.86;68.03
8051;BME280;4068;42.158;24.732;2023-06-26T06:30:23;99180.63;;;27.82;67.97
8051;BME280;4068;42.158;24.732;2023-06-26T06:32:49;99180.59;;;27.65;67.77
8051;BME280;4068;42.158;24.732;2023-06-26T06:35:18;99160.44;;;27.49;67.76
8051;BME280;4068;42.158;24.732;2023-06-26T06:37:43;99185.03;;;27.54;68.87
8051;BME280;4068;42.158;24.732;2023-06-26T06:40:09;99158.91;;;27.42;68.53
8051;BME280;4068;42.158;24.732;2023-06-26T06:42:35;99187.59;;;27.61;67.34
8051;BME280;4068;42.158;24.732;2023-06-26T06:45:05;99189.50;;;27.61;67.82
8051;BME280;4068;42.158;24.732;2023-06-26T06:47:34;99182.81;;;27.68;67.02
8051;BME280;4068;42.158;24.732;2023-06-26T06:50:00;99183.78;;;27.91;66.14
8051;BME280;4068;42.158;24.732;2023-06-26T06:52:35;99185.94;;;28.23;65.59
8051;BME280;4068;42.158;24.732;2023-06-26T06:55:01;99176.53;;;28.48;63.04
8051;BME280;4068;42.158;24.732;2023-06-26T06:57:32;99190.84;;;28.77;62.09
8051;BME280;4068;42.158;24.732;2023-06-26T07:00:02;99194.94;;;28.97;60.58
8051;BME280;4068;42.158;24.732;2023-06-26T07:02:29;99188.22;;;29.04;60.58
8051;BME280;4068;42.158;24.732;2023-06-26T07:04:55;99190.56;;;29.18;59.78
8051;BME280;4068;42.158;24.732;2023-06-26T07:07:20;99176.09;;;28.95;59.67
8051;BME280;4068;42.158;24.732;2023-06-26T07:09:46;99170.00;;;28.88;59.95
8051;BME280;4068;42.158;24.732;2023-06-26T07:12:11;99181.13;;;29.03;60.97
8051;BME280;4068;42.158;24.732;2023-06-26T07:14:37;99180.16;;;29.15;59.46
8051;BME280;4068;42.158;24.732;2023-06-26T07:17:02;99173.81;;;29.31;59.22
8051;BME280;4068;42.158;24.732;2023-06-26T07:19:27;99169.31;;;29.42;58.81
8051;BME280;4068;42.158;24.732;2023-06-26T07:21:53;99170.97;;;29.75;57.87
8051;BME280;4068;42.158;24.732;2023-06-26T07:24:18;99171.66;;;30.20;55.98
8051;BME280;4068;42.158;24.732;2023-06-26T07:26:44;99165.94;;;30.59;54.52
8051;BME280;4068;42.158;24.732;2023-06-26T07:29:09;99152.94;;;30.87;53.17
8051;BME280;4068;42.158;24.732;2023-06-26T07:31:34;99161.81;;;31.10;52.71
8051;BME280;4068;42.158;24.732;2023-06-26T07:34:00;99171.72;;;31.21;52.18
8051;BME280;4068;42.158;24.732;2023-06-26T07:36:25;99153.44;;;31.53;51.42
8051;BME280;4068;42.158;24.732;2023-06-26T07:38:51;99166.66;;;31.97;49.21
8051;BME280;4068;42.158;24.732;2023-06-26T07:41:16;99139.78;;;32.04;49.04
8051;BME280;4068;42.158;24.732;2023-06-26T07:43:42;99164.38;;;32.76;47.84
8051;BME280;4068;42.158;24.732;2023-06-26T07:46:07;99173.53;;;33.21;46.66
8051;BME280;4068;42.158;24.732;2023-06-26T07:48:32;99168.13;;;33.56;46.09
8051;BME280;4068;42.158;24.732;2023-06-26T07:50:58;99151.00;;;33.25;45.17
8051;BME280;4068;42.158;24.732;2023-06-26T07:53:23;99171.44;;;32.98;46.36
8051;BME280;4068;42.158;24.732;2023-06-26T07:55:49;99155.34;;;32.65;46.24
8051;BME280;4068;42.158;24.732;2023-06-26T07:58:14;99151.00;;;32.44;47.45
8051;BME280;4068;42.158;24.732;2023-06-26T08:00:40;99165.03;;;32.27;47.87
8051;BME280;4068;42.158;24.732;2023-06-26T08:03:05;99175.16;;;31.90;47.57
8051;BME280;4068;42.158;24.732;2023-06-26T08:05:31;99176.78;;;31.71;49.26
8051;BME280;4068;42.158;24.732;2023-06-26T08:07:56;99178.34;;;31.51;49.61
8051;BME280;4068;42.158;24.732;2023-06-26T08:10:22;99178.28;;;31.25;49.78
8051;BME280;4068;42.158;24.732;2023-06-26T08:12:47;99183.91;;;30.93;50.77
8051;BME280;4068;42.158;24.732;2023-06-26T08:15:15;99182.25;;;30.92;50.98
8051;BME280;4068;42.158;24.732;2023-06-26T08:17:41;99177.50;;;30.72;52.78
8051;BME280;4068;42.158;24.732;2023-06-26T08:20:06;99180.81;;;30.36;53.87
8051;BME280;4068;42.158;24.732;2023-06-26T08:22:33;99190.09;;;30.03;55.02
8051;BME280;4068;42.158;24.732;2023-06-26T08:24:59;99200.41;;;29.68;56.89
8051;BME280;4068;42.158;24.732;2023-06-26T08:27:25;99196.72;;;29.52;59.23
8051;BME280;4068;42.158;24.732;2023-06-26T08:29:50;99179.97;;;29.43;60.01
8051;BME280;4068;42.158;24.732;2023-06-26T08:32:16;99182.63;;;29.16;66.92
8051;BME280;4068;42.158;24.732;2023-06-26T08:34:41;99191.00;;;29.09;77.21
8051;BME280;4068;42.158;24.732;2023-06-26T08:37:07;99175.69;;;29.08;75.93
8051;BME280;4068;42.158;24.732;2023-06-26T08:39:34;99169.38;;;29.25;79.81
8051;BME280;4068;42.158;24.732;2023-06-26T08:42:00;99183.41;;;29.34;80.99
8051;BME280;4068;42.158;24.732;2023-06-26T08:44:25;99174.50;;;29.43;79.34
8051;BME280;4068;42.158;24.732;2023-06-26T08:46:51;99166.31;;;29.43;77.04
8051;BME280;4068;42.158;24.732;2023-06-26T08:50:04;99162.81;;;29.48;80.51
8051;BME280;4068;42.158;24.732;2023-06-26T08:52:31;99153.53;;;29.49;77.26
8051;BME280;4068;42.158;24.732;2023-06-26T08:55:02;99159.63;;;29.84;78.81
8051;BME280;4068;42.158;24.732;2023-06-26T08:57:30;99155.81;;;30.22;77.02
8051;BME280;4068;42.158;24.732;2023-06-26T08:59:57;99155.34;;;30.73;73.51
8051;BME280;4068;42.158;24.732;2023-06-26T09:02:23;99159.00;;;30.99;74.38
8051;BME280;4068;42.158;24.732;2023-06-26T09:04:50;99158.03;;;31.21;74.32
8051;BME280;4068;42.158;24.732;2023-06-26T09:07:16;99151.78;;;31.46;70.53
8051;BME280;4068;42.158;24.732;2023-06-26T09:09:42;99152.31;;;31.54;74.50
8051;BME280;4068;42.158;24.732;2023-06-26T09:12:08;99127.38;;;31.45;73.62
8051;BME280;4068;42.158;24.732;2023-06-26T09:14:34;99156.75;;;31.65;73.25
8051;BME280;4068;42.158;24.732;2023-06-26T09:17:00;99157.22;;;31.31;63.98
8051;BME280;4068;42.158;24.732;2023-06-26T09:19:26;99150.84;;;31.05;59.53
8051;BME280;4068;42.158;24.732;2023-06-26T09:21:52;99152.56;;;31.26;57.98
8051;BME280;4068;42.158;24.732;2023-06-26T09:24:18;99157.78;;;31.33;56.77
8051;BME280;4068;42.158;24.732;2023-06-26T09:26:43;99166.41;;;30.99;58.70
8051;BME280;4068;42.158;24.732;2023-06-26T09:29:09;99149.09;;;29.98;63.21
8051;BME280;4068;42.158;24.732;2023-06-26T09:31:37;99138.78;;;28.22;70.93
8051;BME280;4068;42.158;24.732;2023-06-26T09:34:03;99166.16;;;26.95;80.15
8051;BME280;4068;42.158;24.732;2023-06-26T09:36:29;99155.19;;;26.43;87.78
8051;BME280;4068;42.158;24.732;2023-06-26T09:39:01;99154.25;;;26.37;87.81
8051;BME280;4068;42.158;24.732;2023-06-26T09:41:27;99164.53;;;26.59;83.76
8051;BME280;4068;42.158;24.732;2023-06-26T09:43:53;99174.56;;;26.58;83.02
8051;BME280;4068;42.158;24.732;2023-06-26T09:46:26;99175.38;;;26.35;83.25
8051;BME280;4068;42.158;24.732;2023-06-26T09:49:02;99188.97;;;26.11;84.94
8051;BME280;4068;42.158;24.732;2023-06-26T09:51:33;99175.75;;;25.73;88.60
8051;BME280;4068;42.158;24.732;2023-06-26T09:54:00;99177.88;;;25.40;89.95
8051;BME280;4068;42.158;24.732;2023-06-26T09:56:27;99182.88;;;25.06;89.25
8051;BME280;4068;42.158;24.732;2023-06-26T09:58:55;99179.81;;;24.59;92.58
8051;BME280;4068;42.158;24.732;2023-06-26T10:01:21;99182.09;;;24.37;95.97
8051;BME280;4068;42.158;24.732;2023-06-26T10:03:47;99180.00;;;24.39;96.28
8051;BME280;4068;42.158;24.732;2023-06-26T10:06:12;99169.38;;;24.62;94.58
8051;BME280;4068;42.158;24.732;2023-06-26T10:08:39;99165.16;;;25.04;92.52
8051;BME280;4068;42.158;24.732;2023-06-26T10:11:07;99161.69;;;25.64;96.40
8051;BME280;4068;42.158;24.732;2023-06-26T10:13:38;99132.03;;;26.05;97.29
8051;BME280;4068;42.158;24.732;2023-06-26T10:16:07;99156.94;;;26.61;97.57
8051;BME280;4068;42.158;24.732;2023-06-26T10:18:33;99147.97;;;26.84;94.88
8051;BME280;4068;42.158;24.732;2023-06-26T10:21:01;99145.97;;;27.20;94.91
8051;BME280;4068;42.158;24.732;2023-06-26T10:23:30;99144.91;;;27.50;94.18
8051;BME280;4068;42.158;24.732;2023-06-26T10:25:58;99147.59;;;27.79;94.79
8051;BME280;4068;42.158;24.732;2023-06-26T10:28:26;99148.78;;;28.17;95.12
8051;BME280;4068;42.158;24.732;2023-06-26T10:30:52;99147.44;;;28.36;86.16
8051;BME280;4068;42.158;24.732;2023-06-26T10:33:19;99147.16;;;28.72;83.06
8051;BME280;4068;42.158;24.732;2023-06-26T10:35:45;99135.31;;;28.83;82.80
8051;BME280;4068;42.158;24.732;2023-06-26T10:38:11;99130.72;;;28.67;79.90
8051;BME280;4068;42.158;24.732;2023-06-26T10:40:44;99123.47;;;29.00;78.87
8051;BME280;4068;42.158;24.732;2023-06-26T10:43:12;99126.38;;;29.65;80.56
8051;BME280;4068;42.158;24.732;2023-06-26T10:45:48;99104.88;;;30.11;73.66
8051;BME280;4068;42.158;24.732;2023-06-26T10:48:18;99122.72;;;30.67;68.54
8051;BME280;4068;42.158;24.732;2023-06-26T10:50:47;99114.84;;;30.75;69.04
8051;BME280;4068;42.158;24.732;2023-06-26T10:53:23;99114.16;;;31.06;66.45
8051;BME280;4068;42.158;24.732;2023-06-26T10:56:01;99113.69;;;31.55;66.44
8051;BME280;4068;42.158;24.732;2023-06-26T11:03:41;99110.31;;;32.77;56.25
8051;BME280;4068;42.158;24.732;2023-06-26T11:06:10;99115.06;;;33.16;56.21
8051;BME280;4068;42.158;24.732;2023-06-26T11:08:45;99114.47;;;33.19;53.61
8051;BME280;4068;42.158;24.732;2023-06-26T11:11:12;99104.31;;;33.25;52.98
8051;BME280;4068;42.158;24.732;2023-06-26T11:13:39;99108.91;;;33.34;53.25
8051;BME280;4068;42.158;24.732;2023-06-26T11:16:05;99101.84;;;33.28;56.09
8051;BME280;4068;42.158;24.732;2023-06-26T11:18:31;99107.56;;;33.32;55.00
8051;BME280;4068;42.158;24.732;2023-06-26T11:21:17;99101.25;;;33.31;50.79
8051;BME280;4068;42.158;24.732;2023-06-26T11:23:48;99103.13;;;32.86;52.15
8051;BME280;4068;42.158;24.732;2023-06-26T11:26:18;99105.50;;;32.32;49.21
8051;BME280;4068;42.158;24.732;2023-06-26T11:28:51;99110.44;;;32.05;48.97
8051;BME280;4068;42.158;24.732;2023-06-26T11:31:31;99106.91;;;31.89;51.59
8051;BME280;4068;42.158;24.732;2023-06-26T11:34:01;99102.22;;;31.74;52.21
8051;BME280;4068;42.158;24.732;2023-06-26T11:36:27;99112.56;;;31.20;50.06
8051;BME280;4068;42.158;24.732;2023-06-26T11:38:54;99113.94;;;31.23;51.13
8051;BME280;4068;42.158;24.732;2023-06-26T11:41:20;99107.41;;;31.44;51.86
8051;BME280;4068;42.158;24.732;2023-06-26T11:43:45;99089.81;;;31.14;55.45
8051;BME280;4068;42.158;24.732;2023-06-26T11:46:11;99079.91;;;30.40;63.95
8051;BME280;4068;42.158;24.732;2023-06-26T11:48:37;99099.78;;;30.25;69.33
8051;BME280;4068;42.158;24.732;2023-06-26T11:51:05;99095.34;;;30.13;69.54
8051;BME280;4068;42.158;24.732;2023-06-26T11:53:30;99099.03;;;30.35;71.20
8051;BME280;4068;42.158;24.732;2023-06-26T11:55:56;99097.84;;;30.68;68.51
8051;BME280;4068;42.158;24.732;2023-06-26T11:58:22;99105.44;;;31.19;64.49
8051;BME280;4068;42.158;24.732;2023-06-26T12:00:48;99106.88;;;32.04;62.98
8051;BME280;4068;42.158;24.732;2023-06-26T12:03:15;99101.22;;;32.81;60.64
8051;BME280;4068;42.158;24.732;2023-06-26T12:05:41;99104.31;;;33.25;57.71
8051;BME280;4068;42.158;24.732;2023-06-26T12:08:10;99104.59;;;33.63;55.88
8051;BME280;4068;42.158;24.732;2023-06-26T12:10:35;99101.53;;;34.04;55.38
8051;BME280;4068;42.158;24.732;2023-06-26T12:13:01;99104.03;;;34.24;55.02
8051;BME280;4068;42.158;24.732;2023-06-26T12:15:27;99099.16;;;34.70;55.20
8051;BME280;4068;42.158;24.732;2023-06-26T12:17:53;99101.28;;;35.40;51.51
8051;BME280;4068;42.158;24.732;2023-06-26T12:20:22;99106.91;;;36.01;52.19
8051;BME280;4068;42.158;24.732;2023-06-26T12:22:49;99077.22;;;36.26;47.79
8051;BME280;4068;42.158;24.732;2023-06-26T12:25:15;99109.63;;;36.20;48.04
8051;BME280;4068;42.158;24.732;2023-06-26T12:27:41;99119.81;;;36.06;47.31
8051;BME280;4068;42.158;24.732;2023-06-26T12:30:06;99122.31;;;35.69;43.19
8051;BME280;4068;42.158;24.732;2023-06-26T12:32:32;99126.84;;;35.46;44.21
8051;BME280;4068;42.158;24.732;2023-06-26T12:35:00;99129.94;;;35.20;43.82
8051;BME280;4068;42.158;24.732;2023-06-26T12:37:26;99134.25;;;35.26;43.58
8051;BME280;4068;42.158;24.732;2023-06-26T12:42:19;99138.88;;;35.50;42.71
8051;BME280;4068;42.158;24.732;2023-06-26T12:44:46;99145.63;;;35.77;42.44
8051;BME280;4068;42.158;24.732;2023-06-26T12:47:14;99139.13;;;36.06;41.26
8051;BME280;4068;42.158;24.732;2023-06-26T12:49:41;99143.88;;;35.86;40.74
8051;BME280;4068;42.158;24.732;2023-06-26T12:52:12;99157.34;;;34.87;44.29
8051;BME280;4068;42.158;24.732;2023-06-26T12:54:40;99150.50;;;33.23;48.91
8051;BME280;4068;42.158;24.732;2023-06-26T12:57:06;99155.28;;;32.86;52.56
8051;BME280;4068;42.158;24.732;2023-06-26T12:59:33;99127.44;;;32.01;58.00
8051;BME280;4068;42.158;24.732;2023-06-26T13:01:59;99152.03;;;31.35;61.01
8051;BME280;4068;42.158;24.732;2023-06-26T13:04:25;99160.22;;;30.28;66.12
8051;BME280;4068;42.158;24.732;2023-06-26T13:06:51;99140.38;;;29.73;70.63
8051;BME280;4068;42.158;24.732;2023-06-26T13:09:17;99164.75;;;30.12;69.60
8051;BME280;4068;42.158;24.732;2023-06-26T13:11:42;99153.69;;;29.65;70.06
8051;BME280;4068;42.158;24.732;2023-06-26T13:14:08;99174.41;;;29.33;72.96
8051;BME280;4068;42.158;24.732;2023-06-26T13:16:34;99183.91;;;29.31;70.96
8051;BME280;4068;42.158;24.732;2023-06-26T13:18:59;99183.66;;;29.32;70.80